Time;durP1;ratioP1;P1;durP2;ratioP2;P2;SDS_P1;SDS_P2;PMS_P1;PMS_P2;Temp;Humidity;BMP_temperature;BMP_pressure;BME280_temperature;BME280_humidity;BME280_pressure;Samples;Min_cycle;Max_cycle;Signal;HPM_P1;HPM_P2
2021/12/21 00:00:56;;;;;;;10.38;5.88;;;;;;;19.45;53.47;97093.69;10405656;28;20802;-23
2021/12/21 00:05:56;;;;;;;10.27;5.95;;;;;;;19.47;53.33;97097.06;10408712;28;20549;-24
2021/12/21 00:10:59;;;;;;;9.63;5.93;;;;;;;19.44;53.43;97086.06;10409250;28;20048;-23
2021/12/21 00:16:10;;;;;;;7.47;5.05;;;;;;;19.50;53.12;97081.00;10408237;28;20558;-23
2021/12/21 00:26:21;;;;;;;10.45;6.32;;;;;;;19.48;53.23;97088.59;10407605;28;20262;-23
2021/12/21 00:31:24;;;;;;;10.38;6.20;;;;;;;19.47;53.22;97092.00;10422683;28;20384;-23
2021/12/21 00:36:27;;;;;;;10.60;5.22;;;;;;;19.46;53.21;97097.06;10405085;28;20039;-23
2021/12/21 00:41:27;;;;;;;10.05;5.70;;;;;;;19.48;53.29;97085.19;10407462;28;20042;-23
2021/12/21 00:46:28;;;;;;;8.63;5.22;;;;;;;19.47;53.23;97091.13;10404709;28;20037;-23
2021/12/21 00:51:28;;;;;;;8.07;5.47;;;;;;;19.40;53.15;97077.59;10403914;28;20041;-23
2021/12/21 00:56:29;;;;;;;10.00;4.93;;;;;;;19.44;53.17;97091.13;10403842;28;20284;-23
2021/12/21 01:01:29;;;;;;;7.35;4.57;;;;;;;19.48;53.13;97092.81;10402461;28;20575;-23
2021/12/21 01:11:41;;;;;;;8.32;4.90;;;;;;;19.50;53.04;97084.38;10403333;28;20028;-23
2021/12/21 01:16:51;;;;;;;10.13;5.20;;;;;;;19.47;53.28;97086.06;10405668;28;20033;-23
2021/12/21 01:22:16;;;;;;;7.50;4.75;;;;;;;19.47;53.50;97086.06;10405792;28;20057;-23
2021/12/21 01:37:54;;;;;;;8.10;4.65;;;;;;;19.45;53.27;97077.59;10404012;28;20033;-23
2021/12/21 01:53:34;;;;;;;7.15;4.72;;;;;;;19.48;53.08;97072.50;10404706;28;20040;-23
2021/12/21 01:58:37;;;;;;;6.25;4.05;;;;;;;19.49;53.04;97075.06;10404751;28;20026;-23
2021/12/21 02:03:38;;;;;;;8.20;4.28;;;;;;;19.49;53.09;97069.16;10404331;28;20496;-24
2021/12/21 02:08:38;;;;;;;7.78;4.15;;;;;;;19.47;53.10;97060.66;10403975;28;20055;-24
2021/12/21 02:13:44;;;;;;;7.15;3.80;;;;;;;19.46;53.30;97058.97;10403742;28;20067;-23
2021/12/21 02:18:58;;;;;;;6.40;4.13;;;;;;;19.45;53.08;97057.28;10401010;28;20040;-23
2021/12/21 02:24:04;;;;;;;6.13;4.43;;;;;;;19.46;53.18;97058.97;10404953;28;20038;-24
2021/12/21 02:29:38;;;;;;;6.03;3.65;;;;;;;19.44;53.16;97058.13;10402462;28;20037;-24
2021/12/21 02:34:32;;;;;;;5.38;3.08;;;;;;;19.43;53.25;97056.44;10401274;28;20033;-23
2021/12/21 02:39:32;;;;;;;8.35;4.30;;;;;;;19.44;53.11;97055.59;10404826;28;20044;-24
2021/12/21 02:44:33;;;;;;;5.63;3.87;;;;;;;19.47;53.19;97060.66;10399855;28;20654;-23
2021/12/21 02:49:34;;;;;;;6.13;4.13;;;;;;;19.47;53.12;97051.38;10402110;28;20299;-24
2021/12/21 02:54:34;;;;;;;4.57;3.67;;;;;;;19.42;53.18;97052.19;10412586;28;20038;-24
2021/12/21 02:59:35;;;;;;;4.93;3.60;;;;;;;19.42;53.22;97052.19;10408441;28;20346;-23
2021/12/21 03:04:35;;;;;;;6.83;3.30;;;;;;;19.44;53.19;97053.03;10410644;28;20844;-24
2021/12/21 03:14:39;;;;;;;5.47;4.07;;;;;;;19.41;53.22;97045.44;10408954;28;20037;-23
2021/12/21 03:19:40;;;;;;;7.00;4.40;;;;;;;19.39;53.17;97039.47;10406850;28;20057;-23
2021/12/21 03:24:44;;;;;;;9.00;4.20;;;;;;;19.43;53.08;97043.75;10410892;28;21322;-24
2021/12/21 03:29:45;;;;;;;6.15;3.55;;;;;;;19.45;52.87;97060.69;10403463;28;20033;-23
2021/12/21 03:34:45;;;;;;;6.45;3.42;;;;;;;19.46;52.80;97064.03;10408001;28;20502;-24
2021/12/21 03:39:46;;;;;;;6.38;3.55;;;;;;;19.45;52.89;97064.88;10410911;28;20036;-23
2021/12/21 03:44:47;;;;;;;6.28;3.60;;;;;;;19.45;52.53;97077.59;10409062;28;20594;-23
2021/12/21 03:49:55;;;;;;;3.60;2.90;;;;;;;19.41;52.86;97076.72;10404195;28;20435;-24
2021/12/21 03:55:00;;;;;;;4.15;2.92;;;;;;;19.39;52.78;97072.50;10406833;28;20120;-23
2021/12/21 04:00:00;;;;;;;5.95;3.53;;;;;;;19.38;53.15;97073.34;10408419;28;20037;-24
2021/12/21 04:05:01;;;;;;;10.60;5.85;;;;;;;19.35;52.78;97078.41;10407837;28;20043;-23
2021/12/21 04:10:03;;;;;;;5.13;3.67;;;;;;;19.37;52.76;97077.59;10409526;28;20048;-24
2021/12/21 04:15:06;;;;;;;5.90;2.97;;;;;;;19.38;52.76;97070.78;10405165;28;20040;-23
2021/12/21 04:20:07;;;;;;;3.97;3.30;;;;;;;19.40;52.60;97074.19;10403027;28;20049;-24
2021/12/21 04:25:08;;;;;;;4.60;3.28;;;;;;;19.42;52.49;97072.53;10406565;28;20037;-23
2021/12/21 04:30:09;;;;;;;4.32;3.10;;;;;;;19.42;52.45;97064.91;10421752;28;20037;-23
2021/12/21 04:35:10;;;;;;;4.47;3.33;;;;;;;19.39;52.71;97054.72;10405897;28;20487;-23
2021/12/21 04:40:15;;;;;;;5.05;2.95;;;;;;;19.38;52.50;97053.03;10403188;28;20037;-23
2021/12/21 04:45:16;;;;;;;5.23;2.80;;;;;;;19.37;52.70;97053.88;10407910;28;20094;-23
2021/12/21 04:50:16;;;;;;;4.95;3.35;;;;;;;19.40;52.74;97053.88;10402487;28;20043;-23
2021/12/21 04:55:17;;;;;;;4.20;3.60;;;;;;;19.42;52.51;97052.19;10399937;28;20026;-23
2021/12/21 05:00:18;;;;;;;5.32;2.78;;;;;;;19.47;52.38;97055.56;10400473;28;20526;-24
2021/12/21 05:05:18;;;;;;;3.67;2.80;;;;;;;19.49;52.30;97053.91;10403933;28;20041;-23
2021/12/21 05:10:19;;;;;;;5.13;2.67;;;;;;;19.50;52.37;97058.97;10399222;28;20110;-23
2021/12/21 05:15:20;;;;;;;3.10;2.60;;;;;;;19.48;52.20;97068.28;10402129;28;20041;-23
2021/12/21 05:20:20;;;;;;;4.07;2.73;;;;;;;19.52;52.41;97072.50;10400018;28;20049;-23
2021/12/21 05:25:21;;;;;;;6.28;3.10;;;;;;;19.53;52.25;97073.38;10400128;28;20411;-23
2021/12/21 05:30:23;;;;;;;6.07;3.38;;;;;;;19.55;51.04;97069.13;10404041;28;20112;-24
2021/12/21 05:35:25;;;;;;;4.60;3.20;;;;;;;19.36;45.32;97069.94;10401752;28;20041;-23
2021/12/21 05:40:39;;;;;;;5.93;4.57;;;;;;;19.16;44.46;97061.44;10401291;28;20645;-23
2021/12/21 05:45:40;;;;;;;4.70;3.55;;;;;;;19.01;42.15;97051.22;10405620;28;20041;-23
2021/12/21 05:50:40;;;;;;;7.72;4.35;;;;;;;18.94;42.01;97064.72;10401107;28;20068;-22
2021/12/21 05:55:41;;;;;;;4.25;3.13;;;;;;;19.08;44.16;97070.69;10405323;28;20480;-22
2021/12/21 06:00:42;;;;;;;7.75;3.75;;;;;;;19.12;43.07;97060.56;10400457;28;20060;-23
2021/12/21 06:05:43;;;;;;;7.20;3.83;;;;;;;19.40;46.24;97069.09;10400185;28;20451;-21
2021/12/21 06:10:46;;;;;;;6.63;3.70;;;;;;;19.37;47.37;97069.09;10405220;28;20087;-22
2021/12/21 06:26:11;;;;;;;8.73;3.72;;;;;;;19.39;49.17;97092.81;10406999;28;20143;-22
2021/12/21 06:31:14;;;;;;;11.43;4.05;;;;;;;19.42;49.14;97077.59;10412728;28;20411;-22
2021/12/21 06:36:15;;;;;;;18.80;4.55;;;;;;;19.13;44.32;97079.16;10410876;28;20605;-21
2021/12/21 06:41:15;;;;;;;19.35;5.68;;;;;;;17.48;39.95;97073.03;10412493;28;20045;-21
2021/12/21 06:46:41;;;;;;;9.07;4.88;;;;;;;18.50;45.00;97061.16;10407968;28;20049;-20
2021/12/21 06:51:47;;;;;;;13.98;4.78;;;;;;;18.79;45.78;97069.72;10406516;28;20044;-20
2021/12/21 06:56:49;;;;;;;8.82;4.32;;;;;;;18.88;46.68;97054.53;10410056;28;20029;-21
2021/12/21 07:01:49;;;;;;;6.93;3.50;;;;;;;19.03;47.50;97073.22;10411635;28;20053;-20
2021/12/21 07:06:52;;;;;;;9.38;4.25;;;;;;;19.08;47.82;97081.69;10410385;28;20120;-20
2021/12/21 07:12:14;;;;;;;9.32;3.85;;;;;;;19.11;48.27;97085.94;10407208;28;20037;-21
2021/12/21 07:22:32;;;;;;;7.53;4.35;;;;;;;19.16;48.78;97084.28;10410739;28;20128;-21
2021/12/21 07:27:33;;;;;;;6.07;3.67;;;;;;;19.17;48.74;97083.41;10409057;28;20087;-21
2021/12/21 07:32:34;;;;;;;7.20;4.22;;;;;;;19.18;48.93;97075.78;10408012;28;20068;-20
2021/12/21 07:37:35;;;;;;;7.47;2.95;;;;;;;19.21;48.96;97067.38;10409107;28;20048;-21
2021/12/21 07:42:36;;;;;;;8.15;4.07;;;;;;;19.21;48.91;97068.25;10409015;28;20053;-20
2021/12/21 07:47:37;;;;;;;10.20;4.03;;;;;;;19.22;48.90;97058.91;10409604;28;20121;-20
2021/12/21 07:52:38;;;;;;;4.72;3.53;;;;;;;19.23;48.99;97058.06;10410150;28;20045;-21
2021/12/21 07:57:38;;;;;;;7.28;3.78;;;;;;;19.24;49.04;97057.25;10406938;28;20088;-21
2021/12/21 08:02:40;;;;;;;5.78;3.90;;;;;;;19.20;49.18;97038.63;10408798;28;20029;-21
2021/12/21 08:07:46;;;;;;;5.88;3.38;;;;;;;19.25;49.18;97053.88;10409234;28;20111;-21
2021/12/21 08:12:47;;;;;;;5.10;3.58;;;;;;;19.21;49.41;97052.16;10405504;28;20029;-20
2021/12/21 08:17:47;;;;;;;5.38;3.67;;;;;;;19.24;49.39;97062.31;10404712;28;20033;-20
2021/12/21 08:22:48;;;;;;;6.00;3.60;;;;;;;19.23;49.39;97058.94;10408549;28;20041;-20
2021/12/21 08:27:49;;;;;;;6.68;3.65;;;;;;;19.23;49.49;97060.59;10402487;28;20033;-21
2021/12/21 08:32:49;;;;;;;5.70;3.33;;;;;;;19.25;49.46;97064.00;10405565;28;20033;-20
2021/12/21 08:37:59;;;;;;;5.57;3.78;;;;;;;19.24;49.02;97058.06;10408330;28;20059;-20
2021/12/21 08:43:00;;;;;;;6.72;3.60;;;;;;;19.19;49.52;97057.22;10404735;28;20168;-21
2021/12/21 08:48:01;;;;;;;5.45;3.28;;;;;;;19.23;49.38;97073.28;10404091;28;20048;-20
2021/12/21 08:53:02;;;;;;;4.65;3.08;;;;;;;19.22;49.44;97079.22;10407669;28;20072;-21
2021/12/21 08:58:02;;;;;;;4.32;3.10;;;;;;;19.22;49.63;97074.16;10407098;28;20026;-21
2021/12/21 09:03:04;;;;;;;4.93;2.78;;;;;;;19.20;49.54;97066.53;10406312;28;20480;-20
2021/12/21 09:08:05;;;;;;;5.32;3.17;;;;;;;19.21;49.59;97072.44;10407063;28;20381;-21
2021/12/21 09:13:07;;;;;;;6.70;3.20;;;;;;;19.25;49.65;97071.63;10404939;28;20037;-20
2021/12/21 09:18:07;;;;;;;3.42;2.60;;;;;;;19.24;49.58;97072.47;10402635;28;20033;-21
2021/12/21 09:23:08;;;;;;;4.73;3.17;;;;;;;19.24;49.52;97077.56;10406322;28;20037;-20
2021/12/21 09:28:08;;;;;;;4.83;2.80;;;;;;;19.24;49.56;97087.72;10405576;28;20033;-21
2021/12/21 09:33:10;;;;;;;5.55;3.40;;;;;;;19.26;49.53;97080.94;10403541;28;20315;-21
2021/12/21 09:38:10;;;;;;;4.13;2.70;;;;;;;19.25;49.48;97081.78;10406533;28;20036;-21
2021/12/21 09:43:11;;;;;;;3.88;3.08;;;;;;;19.19;49.51;97081.75;10404253;28;20353;-21
2021/12/21 09:48:12;;;;;;;4.90;2.97;;;;;;;19.22;49.52;97087.69;10401432;28;20041;-21
2021/12/21 09:53:12;;;;;;;3.58;2.60;;;;;;;19.23;49.79;97093.59;10405609;28;20038;-21
2021/12/21 09:58:13;;;;;;;4.47;3.27;;;;;;;19.24;49.63;97092.78;10402065;28;20625;-21
2021/12/21 10:03:14;;;;;;;3.40;2.45;;;;;;;19.25;49.67;97084.31;10404582;28;20767;-21
2021/12/21 10:08:18;;;;;;;3.30;2.55;;;;;;;19.24;49.73;97091.09;10406061;28;20045;-20
2021/12/21 10:13:22;;;;;;;5.00;3.28;;;;;;;19.28;49.53;97084.31;10404542;28;20088;-20
2021/12/21 10:18:22;;;;;;;4.78;2.65;;;;;;;19.28;49.54;97091.94;10394183;28;20108;-21
2021/12/21 10:23:28;;;;;;;6.07;2.70;;;;;;;19.28;49.53;97097.00;10405443;28;20563;-20
2021/12/21 10:28:31;;;;;;;;;;;;;;;19.28;49.51;97090.25;10400213;28;20618;-20
2021/12/21 10:33:32;;;;;;;3.72;2.65;;;;;;;19.28;49.54;97082.66;10402935;28;20457;-21
2021/12/21 10:38:35;;;;;;;3.88;2.78;;;;;;;19.33;49.51;97075.03;10404762;28;20033;-21
2021/12/21 10:43:36;;;;;;;3.75;2.47;;;;;;;19.31;49.58;97072.50;10402420;28;20033;-21
2021/12/21 10:48:45;;;;;;;3.27;2.20;;;;;;;19.33;49.51;97064.88;10400342;28;20041;-21
2021/12/21 10:53:48;;;;;;;2.80;2.40;;;;;;;19.29;49.50;97066.56;10404838;28;20372;-21
2021/12/21 10:58:48;;;;;;;3.42;2.40;;;;;;;19.31;49.64;97057.25;10400377;28;20029;-21
2021/12/21 11:03:54;;;;;;;3.78;2.55;;;;;;;19.31;49.56;97042.03;10403339;28;20501;-21
2021/12/21 11:08:55;;;;;;;3.70;2.20;;;;;;;19.24;49.73;97035.22;10403993;28;20035;-21
2021/12/21 11:14:04;;;;;;;3.15;2.03;;;;;;;19.26;49.75;97030.16;10410053;28;20324;-21
2021/12/21 11:19:06;;;;;;;3.50;2.30;;;;;;;19.24;49.77;97035.22;10407440;28;20610;-21
2021/12/21 11:24:10;;;;;;;13.93;3.70;;;;;;;18.91;49.03;97031.75;10410561;28;20038;-21
2021/12/21 11:29:15;;;;;;;4.55;2.42;;;;;;;19.11;49.35;97036.03;10408205;28;20495;-21
2021/12/21 11:34:19;;;;;;;4.93;2.90;;;;;;;19.23;49.70;97027.59;10407951;28;20547;-21
2021/12/21 11:39:21;;;;;;;5.13;4.03;;;;;;;18.90;44.90;97018.19;10410478;28;20069;-22
2021/12/21 11:44:30;;;;;;;6.25;3.40;;;;;;;19.13;49.18;97019.13;10409362;28;20408;-21
2021/12/21 11:49:50;;;;;;;9.35;3.30;;;;;;;19.23;49.32;97005.63;10400828;28;20443;-21
2021/12/21 11:54:52;;;;;;;6.13;3.65;;;;;;;19.25;49.30;97003.09;10408789;28;20509;-20
2021/12/21 12:00:09;;;;;;;6.50;3.05;;;;;;;19.32;49.26;96997.16;10409636;28;20048;-21
2021/12/21 12:05:22;;;;;;;5.93;3.13;;;;;;;19.32;49.42;96998.00;10408618;28;20041;-21
2021/12/21 12:10:23;;;;;;;7.72;3.58;;;;;;;19.15;47.87;96986.97;10402851;28;20044;-21
2021/12/21 12:15:24;;;;;;;8.27;3.33;;;;;;;19.24;49.28;96996.31;10407744;28;20065;-21
2021/12/21 12:20:28;;;;;;;5.87;3.10;;;;;;;19.25;49.57;96992.94;10405261;28;20072;-21
2021/12/21 12:25:28;;;;;;;5.57;2.95;;;;;;;19.26;49.85;96994.63;10408435;28;20036;-20
2021/12/21 12:30:29;;;;;;;6.57;2.93;;;;;;;19.09;48.22;96975.97;10411613;28;20045;-20
2021/12/21 12:35:33;;;;;;;6.05;2.90;;;;;;;19.21;49.66;96999.69;10406722;28;20288;-21
2021/12/21 12:40:37;;;;;;;4.85;2.90;;;;;;;19.21;49.75;96988.69;10409843;28;20132;-21
2021/12/21 12:45:47;;;;;;;6.65;2.80;;;;;;;19.24;49.92;96986.19;10407119;28;20033;-21
2021/12/21 12:50:48;;;;;;;4.57;2.75;;;;;;;19.25;49.69;96995.47;10408962;28;20045;-21
2021/12/21 12:55:57;;;;;;;6.32;2.78;;;;;;;19.24;49.98;96993.78;10409284;28;20029;-20
2021/12/21 13:01:03;;;;;;;3.58;2.58;;;;;;;19.21;50.13;96998.84;10409986;28;20037;-21
2021/12/21 13:06:12;;;;;;;4.70;2.65;;;;;;;19.22;50.37;96998.00;10409097;28;20493;-20
2021/12/21 13:11:17;;;;;;;3.72;2.50;;;;;;;19.25;50.58;96998.84;10406879;28;20065;-20
2021/12/21 13:16:22;;;;;;;5.40;3.10;;;;;;;19.22;50.78;97003.94;10409409;28;20044;-22
2021/12/21 13:21:35;;;;;;;5.70;2.63;;;;;;;19.24;50.66;97004.78;10404969;28;20037;-21
2021/12/21 13:26:58;;;;;;;7.65;3.55;;;;;;;19.19;50.99;97008.16;10408833;28;20060;-20
2021/12/21 13:32:01;;;;;;;5.05;3.25;;;;;;;19.22;50.98;96998.00;10406291;28;20068;-21
2021/12/21 13:37:08;;;;;;;7.72;2.95;;;;;;;19.27;51.02;97001.41;10402832;28;20037;-21
2021/12/21 13:42:11;;;;;;;5.60;2.53;;;;;;;19.24;51.15;97006.47;10403074;28;20033;-20
2021/12/21 13:47:24;;;;;;;4.75;3.53;;;;;;;19.21;51.59;97006.44;10402515;28;20158;-21
2021/12/21 13:52:31;;;;;;;5.38;2.65;;;;;;;19.24;51.55;97011.56;10403529;28;20091;-21
2021/12/21 13:57:32;;;;;;;7.07;3.92;;;;;;;19.24;51.54;97011.56;10405143;28;20057;-21
2021/12/21 14:02:37;;;;;;;4.88;2.47;;;;;;;19.22;51.44;97018.28;10405198;28;20036;-21
2021/12/21 14:07:40;;;;;;;5.30;3.17;;;;;;;19.24;51.38;97009.03;10406242;28;20056;-21
2021/12/21 14:12:53;;;;;;;4.57;2.47;;;;;;;19.23;51.57;97007.28;10399087;28;20388;-21
2021/12/21 14:17:53;;;;;;;4.38;3.00;;;;;;;19.25;51.59;97018.31;10398377;28;20046;-21
2021/12/21 14:22:55;;;;;;;5.17;2.80;;;;;;;19.27;51.34;97020.00;10404822;28;20034;-21
2021/12/21 14:28:06;;;;;;;5.13;2.45;;;;;;;19.27;51.48;97035.22;10399040;28;20296;-21
2021/12/21 14:33:25;;;;;;;5.22;2.80;;;;;;;19.19;51.39;97036.06;10401801;28;20559;-21
2021/12/21 14:38:26;;;;;;;4.05;2.75;;;;;;;19.28;51.20;97043.72;10401477;28;20033;-21
2021/12/21 14:43:30;;;;;;;4.20;2.93;;;;;;;19.24;51.32;97054.72;10401118;28;20037;-21
2021/12/21 14:48:31;;;;;;;4.65;2.63;;;;;;;19.25;51.74;97047.06;10406963;28;20414;-20
2021/12/21 14:53:42;;;;;;;4.70;2.67;;;;;;;19.24;52.12;97047.09;10412517;28;20043;-21
2021/12/21 14:58:43;;;;;;;9.05;7.10;;;;;;;18.01;42.09;97054.03;10409410;28;20294;-21
2021/12/21 15:03:43;;;;;;;7.07;5.93;;;;;;;18.08;47.07;97063.38;10410929;28;20043;-20
2021/12/21 15:08:43;;;;;;;5.60;3.80;;;;;;;18.61;49.20;97067.13;10411667;28;20041;-20
2021/12/21 15:13:44;;;;;;;6.57;3.60;;;;;;;18.82;49.31;97082.44;10406692;28;20037;-21
2021/12/21 15:18:44;;;;;;;6.63;4.00;;;;;;;18.95;49.14;97089.25;10408317;28;20041;-20
2021/12/21 15:23:44;;;;;;;5.77;3.40;;;;;;;19.00;49.03;97085.06;10410998;28;20099;-21
2021/12/21 15:28:45;;;;;;;4.60;2.93;;;;;;;19.05;49.50;97085.91;10410789;28;20852;-20
2021/12/21 15:33:45;;;;;;;3.90;2.97;;;;;;;19.05;49.69;97083.38;10408771;28;20037;-20
2021/12/21 15:38:46;;;;;;;4.67;3.23;;;;;;;19.09;49.57;97096.06;10405994;28;20276;-20
2021/12/21 15:43:46;;;;;;;4.53;2.70;;;;;;;19.11;49.84;97093.53;10406424;28;20711;-20
2021/12/21 15:48:48;;;;;;;6.03;3.27;;;;;;;19.11;50.06;97096.09;10405984;28;20309;-20
2021/12/21 15:53:48;;;;;;;6.65;2.70;;;;;;;19.14;49.98;97098.63;10410034;28;20116;-20
2021/12/21 15:58:48;;;;;;;4.80;3.03;;;;;;;19.14;50.10;97096.09;10402263;28;20037;-20
2021/12/21 16:03:49;;;;;;;6.33;2.30;;;;;;;19.13;50.20;97084.25;10408731;28;20296;-20
2021/12/21 16:08:49;;;;;;;3.80;2.47;;;;;;;19.18;50.25;97098.63;10410069;28;20087;-20
2021/12/21 16:13:49;;;;;;;9.57;3.20;;;;;;;19.19;50.37;97089.38;10402981;28;20358;-21
2021/12/21 16:18:50;;;;;;;8.33;3.17;;;;;;;19.23;50.12;97091.06;10405670;28;20025;-21
2021/12/21 16:23:50;;;;;;;4.13;2.50;;;;;;;19.22;50.10;97094.44;10408834;28;20683;-21
2021/12/21 16:28:50;;;;;;;2.93;2.40;;;;;;;19.24;49.86;97095.31;10404907;28;20037;-21
2021/12/21 16:33:53;;;;;;;3.40;3.10;;;;;;;19.26;49.80;97075.88;10405735;28;20506;-20
2021/12/21 16:38:54;;;;;;;5.00;2.80;;;;;;;19.24;49.97;97091.09;10409124;28;20040;-21
2021/12/21 16:44:00;;;;;;;4.63;2.72;;;;;;;19.25;49.88;97087.69;10405828;28;20060;-21
2021/12/21 16:49:02;;;;;;;4.53;2.58;;;;;;;19.25;49.85;97086.88;10404753;28;20033;-20
2021/12/21 16:54:04;;;;;;;3.58;2.40;;;;;;;19.27;49.84;97092.78;10407501;28;20538;-21
2021/12/21 16:59:06;;;;;;;8.48;4.00;;;;;;;19.22;49.37;97100.38;10404945;28;20037;-21
2021/12/21 17:04:07;;;;;;;3.75;2.63;;;;;;;19.23;50.10;97116.44;10405418;28;20033;-20
2021/12/21 17:09:08;;;;;;;6.28;2.50;;;;;;;19.23;50.67;97117.31;10407030;28;20076;-21
2021/12/21 17:14:09;;;;;;;5.68;2.60;;;;;;;19.19;50.54;97110.50;10404025;28;20033;-20
2021/12/21 17:19:10;;;;;;;5.75;2.75;;;;;;;19.26;50.46;97113.94;10403581;28;20438;-21
2021/12/21 17:24:10;;;;;;;4.95;2.72;;;;;;;19.27;50.32;97111.38;10406183;28;20041;-20
2021/12/21 17:29:11;;;;;;;5.27;2.50;;;;;;;19.27;50.14;97113.91;10402663;28;20070;-21
2021/12/21 17:34:11;;;;;;;6.13;2.70;;;;;;;19.26;50.68;97124.09;10397108;28;20091;-21
2021/12/21 17:39:11;;;;;;;6.45;3.30;;;;;;;19.25;50.94;97124.94;10401921;28;20292;-21
2021/12/21 17:44:12;;;;;;;6.37;2.70;;;;;;;19.18;51.33;97120.66;10399321;28;20052;-20
2021/12/21 17:49:13;;;;;;;10.07;2.60;;;;;;;19.19;51.66;97135.06;10401286;28;20037;-21
2021/12/21 17:54:14;;;;;;;12.55;3.20;;;;;;;19.20;51.63;97124.06;10402130;28;20029;-21
2021/12/21 17:59:15;;;;;;;9.77;3.30;;;;;;;19.16;51.33;97099.50;10399785;28;20041;-21
2021/12/21 18:04:15;;;;;;;5.93;2.88;;;;;;;19.25;51.12;97123.22;10396774;28;20408;-21
2021/12/21 18:09:15;;;;;;;5.13;2.78;;;;;;;19.22;51.29;97130.00;10399805;28;20044;-20
2021/12/21 18:14:16;;;;;;;8.60;2.50;;;;;;;19.19;51.54;97130.00;10400016;28;20025;-21
2021/12/21 18:19:17;;;;;;;6.63;3.08;;;;;;;19.22;51.96;97119.84;10401700;28;20382;-21
2021/12/21 18:24:17;;;;;;;6.13;2.75;;;;;;;19.23;51.78;97130.00;10410961;28;20029;-21
2021/12/21 18:29:18;;;;;;;5.20;2.70;;;;;;;19.29;51.69;97136.78;10411093;28;20029;-21
2021/12/21 18:34:18;;;;;;;4.50;2.83;;;;;;;19.29;51.99;97146.94;10411349;28;20488;-21
2021/12/21 18:39:23;;;;;;;6.93;2.67;;;;;;;19.27;51.52;97148.63;10412845;28;20037;-21
2021/12/21 18:44:23;;;;;;;6.15;2.88;;;;;;;19.27;51.60;97153.72;10405819;28;20053;-21
2021/12/21 18:49:24;;;;;;;7.10;2.85;;;;;;;19.27;51.79;97149.47;10404882;28;20513;-21
2021/12/21 18:54:24;;;;;;;4.78;2.85;;;;;;;19.25;51.38;97156.22;10405366;28;20037;-21
2021/12/21 18:59:25;;;;;;;4.85;2.40;;;;;;;19.27;51.44;97156.25;10408144;28;20772;-21
2021/12/21 19:04:26;;;;;;;7.85;2.45;;;;;;;19.28;51.20;97152.88;10406448;28;20582;-20
2021/12/21 19:09:26;;;;;;;10.25;2.95;;;;;;;19.26;51.22;97149.47;10406587;28;20119;-21
2021/12/21 19:14:27;;;;;;;9.48;2.67;;;;;;;19.26;51.29;97154.56;10407389;28;20034;-20
2021/12/21 19:19:27;;;;;;;7.17;2.57;;;;;;;19.24;51.27;97158.78;10404414;28;20514;-21
2021/12/21 19:24:27;;;;;;;10.83;3.40;;;;;;;19.25;51.45;97163.03;10405192;28;20374;-21
2021/12/21 19:29:29;;;;;;;7.63;2.70;;;;;;;19.22;51.30;97170.59;10401692;28;20033;-21
2021/12/21 19:34:29;;;;;;;8.88;3.38;;;;;;;19.24;51.33;97174.03;10403405;28;20036;-21
2021/12/21 19:39:30;;;;;;;9.40;3.33;;;;;;;19.24;51.25;97174.03;10405298;28;20604;-20
2021/12/21 19:44:31;;;;;;;6.32;2.78;;;;;;;19.24;51.39;97174.03;10406649;28;20395;-21
2021/12/21 19:49:31;;;;;;;5.37;2.60;;;;;;;19.23;51.37;97182.44;10402913;28;20038;-21
2021/12/21 19:54:32;;;;;;;8.32;2.53;;;;;;;19.26;51.33;97177.41;10406211;28;21145;-21
2021/12/21 19:59:33;;;;;;;6.78;2.55;;;;;;;19.08;51.24;97154.47;10404114;28;20411;-21
2021/12/21 20:04:34;;;;;;;6.65;2.92;;;;;;;19.20;51.22;97174.84;10403234;28;20036;-20
2021/12/21 20:09:35;;;;;;;3.42;2.20;;;;;;;19.19;51.17;97175.69;10402057;28;20120;-21
2021/12/21 20:14:39;;;;;;;5.38;2.53;;;;;;;19.19;51.22;97165.53;10404838;28;20037;-21
2021/12/21 20:19:44;;;;;;;6.60;2.45;;;;;;;19.16;51.15;97173.94;10401341;28;20099;-21
2021/12/21 20:24:46;;;;;;;6.80;2.33;;;;;;;19.21;51.09;97166.38;10404243;28;20041;-21
2021/12/21 20:29:47;;;;;;;5.90;2.78;;;;;;;19.26;51.06;97163.00;10403684;28;20061;-21
2021/12/21 20:34:47;;;;;;;6.82;2.08;;;;;;;19.24;51.16;97176.56;10398177;28;20109;-21
2021/12/21 20:39:48;;;;;;;5.22;2.50;;;;;;;19.20;51.22;97197.69;10404203;28;20064;-20
2021/12/21 20:44:49;;;;;;;4.57;2.23;;;;;;;19.21;51.46;97199.38;10403821;28;20125;-21
2021/12/21 20:49:49;;;;;;;8.25;3.22;;;;;;;19.22;51.25;97201.94;10404808;28;20037;-21
2021/12/21 20:54:49;;;;;;;4.22;2.08;;;;;;;19.25;51.35;97201.09;10408580;28;20029;-21
2021/12/21 20:59:50;;;;;;;5.30;2.70;;;;;;;19.25;51.42;97207.00;10403723;28;20823;-20
2021/12/21 21:04:51;;;;;;;4.93;2.78;;;;;;;19.28;51.70;97201.09;10402284;28;20528;-21
2021/12/21 21:09:52;;;;;;;5.45;2.47;;;;;;;19.29;51.67;97208.75;10399867;28;20043;-21
2021/12/21 21:14:52;;;;;;;5.78;3.00;;;;;;;19.30;52.03;97209.56;10405717;28;20060;-20
2021/12/21 21:19:53;;;;;;;5.23;3.83;;;;;;;19.22;50.66;97212.09;10403086;28;20456;-21
2021/12/21 21:24:53;;;;;;;7.70;3.25;;;;;;;19.25;50.96;97222.25;10406149;28;20034;-21
2021/12/21 21:29:53;;;;;;;5.90;3.83;;;;;;;18.99;48.91;97223.75;10406557;28;20073;-21
2021/12/21 21:34:54;;;;;;;5.67;4.73;;;;;;;18.68;43.52;97229.47;10403759;28;20295;-21
2021/12/21 21:39:55;;;;;;;5.63;3.72;;;;;;;19.02;47.89;97238.16;10398586;28;20802;-21
2021/12/21 21:44:55;;;;;;;5.68;4.00;;;;;;;19.12;47.14;97227.22;10403447;28;20041;-21
2021/12/21 21:49:57;;;;;;;5.17;4.00;;;;;;;19.12;47.83;97232.28;10398631;28;20059;-22
2021/12/21 21:54:58;;;;;;;5.72;3.00;;;;;;;19.13;48.41;97223.84;10403659;28;20354;-21
2021/12/21 21:59:58;;;;;;;4.50;3.25;;;;;;;19.16;48.69;97221.34;10406061;28;20033;-21
2021/12/21 22:04:59;;;;;;;6.43;3.57;;;;;;;19.19;48.88;97223.91;10404451;28;20088;-21
2021/12/21 22:09:59;;;;;;;6.73;3.70;;;;;;;19.18;49.10;97224.72;10405270;28;20029;-21
2021/12/21 22:15:00;;;;;;;8.40;3.25;;;;;;;19.20;49.16;97228.13;10403945;28;20526;-21
2021/12/21 22:20:00;;;;;;;7.75;3.33;;;;;;;19.19;49.40;97212.03;10401276;28;20037;-21
2021/12/21 22:25:00;;;;;;;5.95;3.95;;;;;;;19.21;49.39;97207.00;10404383;28;20459;-21
2021/12/21 22:30:01;;;;;;;6.13;3.33;;;;;;;19.20;50.04;97202.75;10405246;28;20064;-21
2021/12/21 22:35:03;;;;;;;9.48;3.40;;;;;;;19.22;49.49;97206.13;10402133;28;20124;-21
2021/12/21 22:40:05;;;;;;;10.18;3.08;;;;;;;19.22;49.85;97190.91;10404721;28;20052;-21
2021/12/21 22:45:05;;;;;;;8.57;3.03;;;;;;;19.20;49.92;97202.75;10403330;28;20128;-21
2021/12/21 22:50:06;;;;;;;7.93;2.60;;;;;;;19.21;50.14;97201.91;10400835;28;20034;-21
2021/12/21 22:55:07;;;;;;;4.05;2.63;;;;;;;19.15;50.01;97199.31;10403077;28;20029;-21
2021/12/21 23:00:09;;;;;;;4.95;2.80;;;;;;;19.20;50.18;97213.78;10403039;28;20045;-21
2021/12/21 23:05:09;;;;;;;6.32;3.00;;;;;;;19.16;50.36;97222.16;10403131;28;20029;-21
2021/12/21 23:10:10;;;;;;;7.78;2.50;;;;;;;19.18;50.35;97210.31;10411841;28;20037;-21
2021/12/21 23:15:11;;;;;;;5.20;2.88;;;;;;;19.20;50.21;97208.69;10409842;28;20033;-21
2021/12/21 23:20:12;;;;;;;9.48;3.33;;;;;;;19.18;50.21;97202.69;10407042;28;20492;-21
2021/12/21 23:25:12;;;;;;;11.20;2.85;;;;;;;19.20;50.25;97207.84;10411301;28;20040;-21
2021/12/21 23:30:13;;;;;;;4.20;2.70;;;;;;;19.19;50.30;97211.22;10410174;28;20403;-21
2021/12/21 23:35:14;;;;;;;4.95;2.63;;;;;;;19.18;50.31;97224.72;10407719;28;20033;-21
2021/12/21 23:40:17;;;;;;;4.82;3.03;;;;;;;19.17;50.37;97230.63;10410885;28;20029;-21
2021/12/21 23:45:18;;;;;;;4.20;2.60;;;;;;;19.15;50.47;97224.69;10409068;28;20400;-21
2021/12/21 23:50:18;;;;;;;5.78;2.30;;;;;;;19.16;50.46;97226.41;10406777;28;20033;-21
2021/12/21 23:55:18;;;;;;;4.70;2.53;;;;;;;19.14;50.57;97225.53;10410470;28;20033;-22
